Time;durP1;ratioP1;P1;durP2;ratioP2;P2;SDS_P1;SDS_P2;PMS_P1;PMS_P2;Temp;Humidity;BMP_temperature;BMP_pressure;BME280_temperature;BME280_humidity;BME280_pressure;Samples;Min_cycle;Max_cycle;Signal;HPM_P1;HPM_P2
2022/10/22 00:01:37;;;;;;;3.35;2.28;;;13.70;99.90;;;;;;5049988;28;20040;-91
2022/10/22 00:04:04;;;;;;;12.05;2.80;;;13.70;99.90;;;;;;5050216;28;20053;-91
2022/10/22 00:06:30;;;;;;;4.93;2.20;;;13.70;99.90;;;;;;5038137;28;20025;-89
2022/10/22 00:08:55;;;;;;;9.77;2.65;;;13.60;99.90;;;;;;5047340;28;20033;-90
2022/10/22 00:11:21;;;;;;;13.20;2.90;;;13.60;99.90;;;;;;5051639;28;20040;-91
2022/10/22 00:13:47;;;;;;;4.78;2.88;;;13.60;99.90;;;;;;5058674;28;20389;-90
2022/10/22 00:16:13;;;;;;;3.17;2.53;;;13.50;99.90;;;;;;5040194;28;20033;-91
2022/10/22 00:18:39;;;;;;;4.45;2.67;;;13.50;99.90;;;;;;5049554;28;20036;-90
2022/10/22 00:21:05;;;;;;;6.28;3.17;;;13.50;99.90;;;;;;5046562;28;20037;-90
2022/10/22 00:23:31;;;;;;;10.10;3.63;;;13.40;99.90;;;;;;5054693;28;20425;-90
2022/10/22 00:25:57;;;;;;;4.47;2.72;;;13.40;99.90;;;;;;5051041;28;20135;-90
2022/10/22 00:28:23;;;;;;;6.13;3.63;;;13.40;99.90;;;;;;5049943;28;20033;-89
2022/10/22 00:30:58;;;;;;;13.50;5.38;;;13.40;99.90;;;;;;5055616;28;20504;-90
2022/10/22 00:33:24;;;;;;;;;;;13.50;99.90;;;;;;5049251;28;20059;-90
2022/10/22 00:35:50;;;;;;;3.22;2.90;;;13.50;99.90;;;;;;5051011;28;20452;-90
2022/10/22 00:38:16;;;;;;;5.25;2.97;;;13.50;99.90;;;;;;5055002;28;20037;-89
2022/10/22 00:40:41;;;;;;;6.75;2.97;;;13.50;99.90;;;;;;5060227;28;20031;-91
2022/10/22 00:43:16;;;;;;;2.90;2.55;;;13.40;99.90;;;;;;5061580;28;20117;-90
2022/10/22 00:45:42;;;;;;;10.50;2.88;;;13.40;99.90;;;;;;5044152;28;20029;-91
2022/10/22 00:48:19;;;;;;;5.57;3.30;;;13.40;99.90;;;;;;5058019;28;20469;-90
2022/10/22 00:50:56;;;;;;;11.10;3.42;;;13.40;99.90;;;;;;5063925;28;20048;-90
2022/10/22 00:53:28;;;;;;;8.73;3.90;;;13.40;99.90;;;;;;5054288;28;20032;-90
2022/10/22 00:55:55;;;;;;;15.88;5.55;;;13.50;99.90;;;;;;5065392;28;20037;-90
2022/10/22 00:58:25;;;;;;;7.32;4.50;;;13.70;99.90;;;;;;5047488;28;20450;-90
2022/10/22 01:00:50;;;;;;;14.90;6.30;;;14.00;99.90;;;;;;5056064;28;20112;-89
2022/10/22 01:03:16;;;;;;;7.43;4.13;;;14.20;99.90;;;;;;5047265;28;20202;-88
2022/10/22 01:05:50;;;;;;;12.63;5.38;;;14.40;99.90;;;;;;5046319;28;20029;-90
2022/10/22 01:08:29;;;;;;;11.63;4.53;;;14.60;99.90;;;;;;5041724;28;20159;-89
2022/10/22 01:11:01;;;;;;;8.23;4.75;;;14.70;99.90;;;;;;5050562;28;20044;-89
2022/10/22 01:13:47;;;;;;;15.80;4.38;;;14.80;99.90;;;;;;5051974;28;20079;-89
2022/10/22 01:16:19;;;;;;;11.15;4.45;;;14.90;99.90;;;;;;5053215;28;20029;-90
2022/10/22 01:19:12;;;;;;;7.55;3.55;;;14.90;99.90;;;;;;5059360;28;20095;-89
2022/10/22 01:21:49;;;;;;;7.97;3.47;;;15.00;99.90;;;;;;5043892;28;20021;-90
2022/10/22 01:24:33;;;;;;;10.88;3.53;;;15.00;99.90;;;;;;5057293;28;20148;-89
2022/10/22 01:27:17;;;;;;;15.05;4.40;;;15.00;99.90;;;;;;5045532;28;20033;-90
2022/10/22 01:30:09;;;;;;;6.93;3.63;;;15.10;99.90;;;;;;5048406;28;20491;-90
2022/10/22 01:32:47;;;;;;;9.13;3.65;;;15.00;99.90;;;;;;5018949;28;20040;-89
2022/10/22 01:35:17;;;;;;;6.55;3.58;;;15.00;99.90;;;;;;5049989;28;20098;-89
2022/10/22 01:37:50;;;;;;;10.35;3.65;;;15.00;99.90;;;;;;5052988;28;20107;-90
2022/10/22 01:40:17;;;;;;;9.27;3.42;;;14.90;99.90;;;;;;5057382;28;20095;-90
2022/10/22 01:43:10;;;;;;;6.60;3.47;;;15.10;99.90;;;;;;5050415;28;20388;-90
2022/10/22 01:45:41;;;;;;;9.30;3.85;;;15.10;99.90;;;;;;5041547;28;20033;-89
2022/10/22 01:48:35;;;;;;;13.68;4.82;;;15.10;99.90;;;;;;5051936;28;20038;-89
2022/10/22 01:51:12;;;;;;;12.50;4.38;;;15.30;99.90;;;;;;5043450;28;20127;-87
2022/10/22 01:53:52;;;;;;;9.02;3.97;;;15.20;99.90;;;;;;5049014;28;20035;-90
2022/10/22 01:56:39;;;;;;;12.15;4.45;;;15.30;99.90;;;;;;5049897;28;20025;-89
2022/10/22 01:59:31;;;;;;;17.05;5.03;;;15.20;99.90;;;;;;5043882;28;20477;-88
2022/10/22 02:02:09;;;;;;;9.43;4.55;;;15.30;99.90;;;;;;5055835;28;20112;-89
2022/10/22 02:04:48;;;;;;;5.70;3.75;;;15.30;99.90;;;;;;5054255;28;20032;-91
2022/10/22 02:07:19;;;;;;;11.05;4.80;;;15.20;99.90;;;;;;5053423;28;20290;-89
2022/10/22 02:09:46;;;;;;;11.93;3.40;;;15.20;99.90;;;;;;5062915;28;20345;-90
2022/10/22 02:12:12;;;;;;;7.70;3.80;;;15.30;99.90;;;;;;5047619;28;20029;-90
2022/10/22 02:14:41;;;;;;;14.82;3.42;;;15.30;99.90;;;;;;5049246;28;20033;-90
2022/10/22 02:17:12;;;;;;;10.63;4.13;;;15.30;99.90;;;;;;5056226;28;20025;-89
2022/10/22 02:19:53;;;;;;;8.80;3.90;;;15.20;99.90;;;;;;5055695;28;20451;-90
2022/10/22 02:22:19;;;;;;;9.50;4.20;;;15.20;99.90;;;;;;5047323;28;20032;-89
2022/10/22 02:24:47;;;;;;;5.82;4.03;;;15.20;99.90;;;;;;5057403;28;20033;-88
2022/10/22 02:27:21;;;;;;;12.40;4.20;;;15.20;99.90;;;;;;5046632;28;20059;-89
2022/10/22 02:29:52;;;;;;;9.10;4.78;;;15.20;99.90;;;;;;5048676;28;20465;-91
2022/10/22 02:32:20;;;;;;;13.80;4.50;;;15.20;99.90;;;;;;5048905;28;20441;-89
2022/10/22 02:34:48;;;;;;;11.63;4.47;;;15.20;99.90;;;;;;5047046;28;20082;-89
2022/10/22 02:37:15;;;;;;;12.63;4.55;;;15.30;99.90;;;;;;5045230;28;20039;-88
2022/10/22 02:39:40;;;;;;;11.95;5.65;;;15.30;99.90;;;;;;5051502;28;20052;-90
2022/10/22 02:42:08;;;;;;;10.95;4.95;;;15.30;99.90;;;;;;5045436;28;20397;-89
2022/10/22 02:44:40;;;;;;;16.10;4.60;;;15.30;99.90;;;;;;5045328;28;20076;-90
2022/10/22 02:47:06;;;;;;;6.90;4.10;;;15.30;99.90;;;;;;5051377;28;20059;-90
2022/10/22 02:49:31;;;;;;;10.20;4.45;;;15.30;99.90;;;;;;5052647;28;20032;-89
2022/10/22 02:51:58;;;;;;;20.40;6.35;;;15.20;99.90;;;;;;5044357;28;20565;-90
2022/10/22 02:54:24;;;;;;;11.23;4.28;;;15.20;99.90;;;;;;5049424;28;20446;-89
2022/10/22 02:56:49;;;;;;;11.57;4.70;;;15.30;99.90;;;;;;5054543;28;20036;-90
2022/10/22 02:59:15;;;;;;;12.15;4.30;;;15.20;99.90;;;;;;5056030;28;20056;-88
2022/10/22 03:01:44;;;;;;;13.40;4.35;;;15.20;99.90;;;;;;5058889;28;20025;-90
2022/10/22 03:04:09;;;;;;;9.98;4.38;;;15.20;99.90;;;;;;5057074;28;20123;-90
2022/10/22 03:06:44;;;;;;;11.35;4.53;;;15.20;99.90;;;;;;5048305;28;20536;-90
2022/10/22 03:09:10;;;;;;;15.82;5.10;;;15.20;99.90;;;;;;5059835;28;20033;-88
2022/10/22 03:11:44;;;;;;;16.85;5.65;;;15.20;99.90;;;;;;5038994;28;20037;-89
2022/10/22 03:14:10;;;;;;;17.35;4.95;;;15.20;99.90;;;;;;5048129;28;20395;-90
2022/10/22 03:16:36;;;;;;;7.43;5.05;;;15.20;99.90;;;;;;5050694;28;20049;-90
2022/10/22 03:19:02;;;;;;;8.88;4.50;;;15.20;99.90;;;;;;5049235;28;20543;-89
2022/10/22 03:21:41;;;;;;;13.57;5.30;;;15.20;99.90;;;;;;5048190;28;20028;-90
2022/10/22 03:24:12;;;;;;;8.90;4.57;;;15.20;99.90;;;;;;5043422;28;20059;-90
2022/10/22 03:26:40;;;;;;;8.32;4.57;;;15.20;99.90;;;;;;5041735;28;20029;-89
2022/10/22 03:29:06;;;;;;;10.88;4.72;;;15.20;99.90;;;;;;5054768;28;20292;-91
2022/10/22 03:31:31;;;;;;;10.30;4.85;;;15.20;99.90;;;;;;5051888;28;20564;-90
2022/10/22 03:33:57;;;;;;;12.80;4.78;;;15.20;99.90;;;;;;5056180;28;20123;-89
2022/10/22 03:36:23;;;;;;;9.88;3.75;;;15.20;99.90;;;;;;5052322;28;20138;-90
2022/10/22 03:38:49;;;;;;;13.52;3.80;;;15.20;99.90;;;;;;5046689;28;20147;-89
2022/10/22 03:41:14;;;;;;;12.07;4.45;;;15.20;99.90;;;;;;5055865;28;20024;-91
2022/10/22 03:43:48;;;;;;;12.13;4.38;;;15.20;99.90;;;;;;5058190;28;20032;-90
2022/10/22 03:46:14;;;;;;;7.20;3.45;;;15.20;99.90;;;;;;5052388;28;20524;-90
2022/10/22 03:48:46;;;;;;;9.60;4.30;;;15.20;99.90;;;;;;5063133;28;20040;-90
2022/10/22 03:51:12;;;;;;;7.30;4.00;;;15.20;99.90;;;;;;5061833;28;20044;-88
2022/10/22 03:53:40;;;;;;;14.35;4.28;;;15.20;99.90;;;;;;5062201;28;20029;-90
2022/10/22 03:56:10;;;;;;;10.93;4.10;;;15.30;99.90;;;;;;5057518;28;20056;-90
2022/10/22 03:58:40;;;;;;;10.80;3.67;;;15.30;99.90;;;;;;5056542;28;20039;-89
2022/10/22 04:01:11;;;;;;;15.23;3.45;;;15.30;99.90;;;;;;5054008;28;20025;-91
2022/10/22 04:03:36;;;;;;;11.95;3.97;;;15.30;99.90;;;;;;5059065;28;20027;-90
2022/10/22 04:06:11;;;;;;;9.13;3.65;;;15.20;99.90;;;;;;5049618;28;20104;-89
2022/10/22 04:08:39;;;;;;;7.30;3.05;;;15.30;99.90;;;;;;5055315;28;20028;-89
2022/10/22 04:11:05;;;;;;;5.95;3.13;;;15.30;99.90;;;;;;5027734;28;20044;-90
2022/10/22 04:13:31;;;;;;;13.45;3.83;;;15.30;99.90;;;;;;5059202;28;20491;-89
2022/10/22 04:16:31;;;;;;;13.82;3.97;;;15.30;99.90;;;;;;5051625;28;20135;-91
2022/10/22 04:18:57;;;;;;;9.25;3.55;;;15.30;99.90;;;;;;5041657;28;20415;-90
2022/10/22 04:21:23;;;;;;;17.50;3.85;;;15.30;99.90;;;;;;5052320;28;20020;-90
2022/10/22 04:23:51;;;;;;;11.90;3.33;;;15.30;99.90;;;;;;5055195;28;20459;-90
2022/10/22 04:26:18;;;;;;;19.27;3.55;;;15.30;99.90;;;;;;5029985;28;20028;-87
2022/10/22 04:28:44;;;;;;;9.80;3.33;;;15.30;99.90;;;;;;5057281;28;20036;-89
2022/10/22 04:31:14;;;;;;;8.43;3.17;;;15.30;99.90;;;;;;5052441;28;20429;-90
2022/10/22 04:33:43;;;;;;;10.90;3.50;;;15.30;99.90;;;;;;5054700;28;20087;-90
2022/10/22 04:36:15;;;;;;;6.07;2.92;;;15.30;99.90;;;;;;5049741;28;20072;-90
2022/10/22 04:38:42;;;;;;;4.40;3.47;;;15.30;99.90;;;;;;5052597;28;20053;-91
2022/10/22 04:41:16;;;;;;;5.45;2.97;;;15.30;99.90;;;;;;5051314;28;20033;-90
2022/10/22 04:43:43;;;;;;;13.32;3.60;;;15.30;99.90;;;;;;5060398;28;20029;-91
2022/10/22 04:46:10;;;;;;;17.15;3.15;;;15.30;99.90;;;;;;5050839;28;20071;-89
2022/10/22 04:48:37;;;;;;;9.38;3.20;;;15.30;99.90;;;;;;5057117;28;20037;-90
2022/10/22 04:51:07;;;;;;;4.97;2.90;;;15.30;99.90;;;;;;5041709;28;20104;-90
2022/10/22 04:53:36;;;;;;;8.60;2.50;;;15.30;99.90;;;;;;5056802;28;20032;-91
2022/10/22 04:56:10;;;;;;;12.50;3.72;;;15.30;99.90;;;;;;5050989;28;20052;-89
2022/10/22 04:58:37;;;;;;;11.07;2.70;;;15.40;99.90;;;;;;5055452;28;20082;-90
2022/10/22 05:01:18;;;;;;;7.93;3.15;;;15.40;99.90;;;;;;5054820;28;20036;-90
2022/10/22 05:03:45;;;;;;;11.63;3.72;;;15.30;99.90;;;;;;5050986;28;20032;-91
2022/10/22 05:06:14;;;;;;;6.95;3.13;;;15.30;99.90;;;;;;5054192;28;20032;-91
2022/10/22 05:08:43;;;;;;;7.18;2.53;;;15.40;99.90;;;;;;5046574;28;20035;-90
2022/10/22 05:11:11;;;;;;;7.30;3.05;;;15.40;99.90;;;;;;5051560;22;20041;-90
2022/10/22 05:13:36;;;;;;;4.68;2.72;;;15.30;99.90;;;;;;5027908;28;20057;-92
2022/10/22 05:16:05;;;;;;;5.45;3.42;;;15.30;99.90;;;;;;5023215;28;20423;-92
2022/10/22 05:18:35;;;;;;;6.82;3.05;;;15.30;99.90;;;;;;5023292;28;20034;-90
2022/10/22 05:21:01;;;;;;;11.35;3.67;;;15.20;99.90;;;;;;5026098;28;20390;-92
2022/10/22 05:23:27;;;;;;;12.32;3.38;;;15.20;99.90;;;;;;5021778;28;20112;-92
2022/10/22 05:25:54;;;;;;;9.25;4.05;;;15.20;99.90;;;;;;5020852;28;20160;-91
2022/10/22 05:28:19;;;;;;;8.32;2.92;;;15.20;99.90;;;;;;5026462;28;20483;-92
2022/10/22 05:30:53;;;;;;;6.43;3.53;;;15.20;99.90;;;;;;5025594;28;20041;-90
2022/10/22 05:33:21;;;;;;;7.05;3.67;;;15.20;99.90;;;;;;5022370;28;20033;-89
2022/10/22 05:35:47;;;;;;;24.98;8.50;;;15.20;99.90;;;;;;5028298;28;20041;-90
2022/10/22 05:38:13;;;;;;;17.17;6.35;;;15.20;99.90;;;;;;5023260;28;20117;-91
2022/10/22 05:40:38;;;;;;;12.77;5.80;;;15.20;99.90;;;;;;5022440;28;20124;-91
2022/10/22 05:43:07;;;;;;;8.25;3.88;;;15.10;99.90;;;;;;5029297;28;20018;-90
2022/10/22 05:45:40;;;;;;;22.10;7.82;;;15.10;99.90;;;;;;5024473;28;20025;-91
2022/10/22 05:48:08;;;;;;;14.18;6.30;;;15.10;99.90;;;;;;5018648;28;20048;-90
2022/10/22 05:50:37;;;;;;;25.40;8.13;;;15.10;99.90;;;;;;5028157;28;20431;-90
2022/10/22 05:53:04;;;;;;;24.65;9.82;;;15.20;99.90;;;;;;5019955;28;20111;-90
2022/10/22 05:55:30;;;;;;;27.50;7.13;;;15.20;99.90;;;;;;5026878;28;20030;-89
2022/10/22 05:57:58;;;;;;;16.95;5.45;;;15.20;99.90;;;;;;5029937;28;20414;-89
2022/10/22 06:00:24;;;;;;;13.60;6.30;;;15.10;99.90;;;;;;5017957;28;20042;-89
2022/10/22 06:02:50;;;;;;;7.78;4.22;;;15.10;99.90;;;;;;5025126;28;20030;-90
2022/10/22 06:05:16;;;;;;;11.35;4.00;;;15.10;99.90;;;;;;5025642;28;20044;-90
2022/10/22 06:07:42;;;;;;;18.77;4.00;;;15.10;99.90;;;;;;5027464;28;20101;-89
2022/10/22 06:10:16;;;;;;;10.38;3.92;;;15.10;99.90;;;;;;5029744;28;20467;-89
2022/10/22 06:12:41;;;;;;;12.38;4.10;;;15.10;99.90;;;;;;5025261;28;20037;-90
2022/10/22 06:15:10;;;;;;;11.80;3.97;;;15.10;99.90;;;;;;5028563;28;20412;-89
2022/10/22 06:17:36;;;;;;;10.80;3.45;;;15.10;99.90;;;;;;5022272;28;20036;-90
2022/10/22 06:20:01;;;;;;;10.85;3.65;;;15.00;99.90;;;;;;5023939;28;20179;-89
2022/10/22 06:22:27;;;;;;;4.88;3.00;;;15.10;99.90;;;;;;5021764;28;20021;-89
2022/10/22 06:24:53;;;;;;;5.90;3.95;;;15.10;99.90;;;;;;5028304;28;20057;-91
2022/10/22 06:27:18;;;;;;;13.57;4.90;;;15.10;99.90;;;;;;5024382;28;20026;-91
2022/10/22 06:29:44;;;;;;;15.73;5.32;;;15.10;99.90;;;;;;5027604;28;20123;-92
2022/10/22 06:32:09;;;;;;;12.52;4.10;;;15.20;99.90;;;;;;5019904;28;20025;-90
2022/10/22 06:34:35;;;;;;;10.80;4.80;;;15.20;99.90;;;;;;5027388;28;20022;-90
2022/10/22 06:37:00;;;;;;;13.70;4.13;;;15.10;99.90;;;;;;5025277;28;20030;-90
2022/10/22 06:39:26;;;;;;;10.43;5.38;;;15.10;99.90;;;;;;5028411;28;20387;-90
2022/10/22 06:41:51;;;;;;;13.45;4.38;;;15.10;99.90;;;;;;5024035;28;20107;-90
2022/10/22 06:44:18;;;;;;;9.23;4.25;;;15.10;99.90;;;;;;5029390;28;20110;-89
2022/10/22 06:46:44;;;;;;;7.75;3.60;;;15.10;99.90;;;;;;5021415;28;20087;-91
2022/10/22 06:49:14;;;;;;;9.63;3.65;;;15.20;99.90;;;;;;5025956;28;20487;-92
2022/10/22 06:51:40;;;;;;;8.93;4.22;;;15.20;99.90;;;;;;5025504;28;20399;-92
2022/10/22 06:54:06;;;;;;;6.72;3.92;;;15.20;99.90;;;;;;5029203;28;20026;-90
2022/10/22 06:56:31;;;;;;;17.23;4.18;;;15.20;99.90;;;;;;5025011;28;20044;-89
2022/10/22 06:58:57;;;;;;;5.53;3.53;;;15.20;99.90;;;;;;5026313;28;20053;-89
2022/10/22 07:01:30;;;;;;;7.82;3.47;;;15.30;99.90;;;;;;5017573;28;20022;-92
2022/10/22 07:03:56;;;;;;;10.00;4.30;;;15.30;99.90;;;;;;5028113;28;20056;-90
2022/10/22 07:06:23;;;;;;;10.32;4.53;;;15.40;99.90;;;;;;5026804;28;20033;-90
2022/10/22 07:08:48;;;;;;;15.55;7.07;;;15.40;99.90;;;;;;5021688;28;20029;-90
2022/10/22 07:11:17;;;;;;;17.88;7.18;;;15.40;99.90;;;;;;5027146;28;20451;-89
2022/10/22 07:13:43;;;;;;;17.33;5.72;;;15.50;99.90;;;;;;5027296;28;20101;-90
2022/10/22 07:16:09;;;;;;;18.88;8.10;;;15.50;99.90;;;;;;5029447;28;20022;-90
2022/10/22 07:18:36;;;;;;;11.95;6.75;;;15.50;99.90;;;;;;5029058;28;20037;-92
2022/10/22 07:21:02;;;;;;;14.20;6.38;;;15.50;99.90;;;;;;5026403;28;20622;-89
2022/10/22 07:23:28;;;;;;;16.13;5.80;;;15.50;99.90;;;;;;5026201;28;20059;-91
2022/10/22 07:25:54;;;;;;;11.50;4.97;;;15.60;99.90;;;;;;5016008;28;20073;-90
2022/10/22 07:28:20;;;;;;;12.05;4.15;;;15.60;99.90;;;;;;5027480;28;20018;-89
2022/10/22 07:30:46;;;;;;;12.40;3.65;;;15.60;99.90;;;;;;5019795;28;20069;-89
2022/10/22 07:33:12;;;;;;;20.88;4.35;;;15.70;99.90;;;;;;5010378;28;20475;-90
2022/10/22 07:35:39;;;;;;;11.57;3.28;;;15.70;99.90;;;;;;5027358;28;20071;-90
2022/10/22 07:38:06;;;;;;;6.43;3.22;;;15.70;99.90;;;;;;5020669;28;20037;-90
2022/10/22 07:40:32;;;;;;;5.88;3.13;;;15.70;99.90;;;;;;5029606;28;20506;-90
2022/10/22 07:42:58;;;;;;;9.07;2.92;;;15.70;99.90;;;;;;5021181;28;20055;-89
2022/10/22 07:45:23;;;;;;;10.57;3.38;;;15.70;99.90;;;;;;5016512;28;20029;-89
2022/10/22 07:47:49;;;;;;;17.83;3.65;;;15.70;99.90;;;;;;5018956;28;20029;-90
2022/10/22 07:50:16;;;;;;;13.65;4.03;;;15.70;99.90;;;;;;5027031;28;20037;-91
2022/10/22 07:52:41;;;;;;;7.18;3.72;;;15.70;99.90;;;;;;5023186;28;20501;-90
2022/10/22 07:55:08;;;;;;;14.32;3.75;;;15.70;99.90;;;;;;5027453;28;20037;-90
2022/10/22 07:57:35;;;;;;;6.95;3.72;;;15.70;99.90;;;;;;5027436;28;20035;-91
2022/10/22 08:00:02;;;;;;;7.28;3.60;;;15.70;99.90;;;;;;5018780;28;20038;-91
2022/10/22 08:02:31;;;;;;;12.57;4.40;;;15.60;99.90;;;;;;5023650;28;20372;-90
2022/10/22 08:04:59;;;;;;;9.38;5.10;;;15.60;99.90;;;;;;5028931;28;20029;-91
2022/10/22 08:07:28;;;;;;;8.98;4.97;;;15.60;99.90;;;;;;5018128;28;20068;-90
2022/10/22 08:09:53;;;;;;;12.07;5.18;;;15.60;99.90;;;;;;5022620;28;20116;-89
2022/10/22 08:12:22;;;;;;;8.55;4.22;;;15.60;99.90;;;;;;5026811;28;20833;-90
2022/10/22 08:14:50;;;;;;;15.73;5.57;;;15.50;99.90;;;;;;5013131;28;20116;-90
2022/10/22 08:17:16;;;;;;;12.63;5.05;;;15.50;99.90;;;;;;5023725;28;20029;-90
2022/10/22 08:19:41;;;;;;;16.40;7.95;;;15.40;99.90;;;;;;5033126;28;20485;-92
2022/10/22 08:22:07;;;;;;;16.52;5.28;;;15.40;99.90;;;;;;5023798;28;20035;-92
2022/10/22 08:24:33;;;;;;;8.77;4.70;;;15.40;99.90;;;;;;5027541;28;20025;-92
2022/10/22 08:26:59;;;;;;;17.90;5.65;;;15.40;99.90;;;;;;5028021;28;20529;-90
2022/10/22 08:29:25;;;;;;;11.75;5.10;;;15.40;99.90;;;;;;5031533;28;20132;-92
2022/10/22 08:31:52;;;;;;;14.57;4.80;;;15.30;99.90;;;;;;5026160;28;20041;-93
2022/10/22 08:34:18;;;;;;;10.98;4.55;;;15.40;99.90;;;;;;5025253;28;20025;-91
2022/10/22 08:36:44;;;;;;;14.88;5.20;;;15.40;99.90;;;;;;5025952;28;20394;-90
2022/10/22 08:39:10;;;;;;;11.05;4.78;;;15.50;99.90;;;;;;5026663;28;20037;-89
2022/10/22 08:42:15;;;;;;;10.68;4.50;;;15.50;99.90;;;;;;5026754;28;20489;-91
2022/10/22 08:44:49;;;;;;;16.27;5.25;;;15.60;99.90;;;;;;5024531;28;20060;-93
2022/10/22 08:47:34;;;;;;;17.77;5.68;;;15.70;99.90;;;;;;5027880;28;20036;-90
2022/10/22 08:49:59;;;;;;;13.10;4.43;;;15.80;99.90;;;;;;5030595;28;20037;-93
2022/10/22 08:52:28;;;;;;;12.00;4.68;;;15.80;99.90;;;;;;5031497;28;20052;-91
2022/10/22 08:54:58;;;;;;;20.67;6.07;;;15.90;99.90;;;;;;5026080;28;20034;-89
2022/10/22 08:57:36;;;;;;;7.97;3.95;;;15.90;99.90;;;;;;5024438;28;20026;-92
2022/10/22 09:00:15;;;;;;;17.80;3.40;;;16.00;99.90;;;;;;5029980;28;20529;-92
2022/10/22 09:03:22;;;;;;;9.50;4.30;;;16.10;99.90;;;;;;5024752;28;20025;-88
2022/10/22 09:06:12;;;;;;;9.38;3.97;;;16.10;99.90;;;;;;5028132;28;20052;-91
2022/10/22 09:08:40;;;;;;;13.00;4.05;;;16.20;99.90;;;;;;5018958;28;20483;-91
2022/10/22 09:11:24;;;;;;;8.32;4.40;;;16.30;99.90;;;;;;5028738;28;20590;-91
2022/10/22 09:13:52;;;;;;;14.18;4.63;;;16.30;99.90;;;;;;5027503;28;20033;-91
2022/10/22 09:16:35;;;;;;;8.88;3.88;;;16.40;99.90;;;;;;5023570;28;20478;-92
2022/10/22 09:19:32;;;;;;;9.18;3.67;;;16.40;99.90;;;;;;5019067;28;20087;-89
2022/10/22 09:22:08;;;;;;;10.43;3.95;;;16.40;99.90;;;;;;5021712;28;20034;-89
2022/10/22 09:24:41;;;;;;;9.07;4.10;;;16.40;99.90;;;;;;5027779;28;20029;-91
2022/10/22 09:27:25;;;;;;;7.78;3.42;;;16.40;99.90;;;;;;5026432;28;20033;-90
2022/10/22 09:29:50;;;;;;;6.00;3.03;;;16.50;99.90;;;;;;5024168;28;20033;-91
2022/10/22 09:32:17;;;;;;;13.13;3.42;;;16.50;99.90;;;;;;5022681;28;20429;-86
2022/10/22 09:34:44;;;;;;;19.35;3.47;;;16.50;99.90;;;;;;5024891;28;20030;-92
2022/10/22 09:37:10;;;;;;;7.35;3.53;;;16.40;99.90;;;;;;4997498;28;20186;-90
2022/10/22 09:39:50;;;;;;;10.32;3.80;;;16.40;99.90;;;;;;5024496;28;20025;-90
2022/10/22 09:42:18;;;;;;;8.73;3.88;;;16.40;99.90;;;;;;5009123;28;20029;-91
2022/10/22 09:44:53;;;;;;;18.63;3.72;;;16.40;99.90;;;;;;5004089;28;20525;-92
2022/10/22 09:47:38;;;;;;;6.97;3.40;;;16.50;99.90;;;;;;5026565;28;20387;-91
2022/10/22 09:50:09;;;;;;;7.47;3.00;;;16.60;99.90;;;;;;5025383;28;20483;-94
2022/10/22 09:52:35;;;;;;;12.57;3.08;;;16.70;99.90;;;;;;4997813;28;20034;-91
2022/10/22 09:55:11;;;;;;;10.90;3.33;;;16.70;99.90;;;;;;5030568;28;20036;-89
2022/10/22 09:57:37;;;;;;;6.85;3.20;;;16.80;99.90;;;;;;5006630;28;20136;-93
2022/10/22 10:00:07;;;;;;;6.60;3.25;;;16.70;99.90;;;;;;5031310;28;20037;-91
2022/10/22 10:02:33;;;;;;;10.45;3.30;;;16.80;99.90;;;;;;5023062;28;20034;-91
2022/10/22 10:05:02;;;;;;;8.32;3.20;;;16.80;99.90;;;;;;5024969;28;20021;-91
2022/10/22 10:07:33;;;;;;;7.68;3.20;;;16.80;99.90;;;;;;5025172;28;20057;-91
2022/10/22 10:09:59;;;;;;;23.27;3.42;;;16.90;99.90;;;;;;5018365;28;20112;-91
2022/10/22 10:12:39;;;;;;;8.00;2.70;;;16.90;99.90;;;;;;5023651;28;20053;-91
2022/10/22 10:15:32;;;;;;;12.40;2.65;;;17.00;99.90;;;;;;5021696;28;20053;-93
2022/10/22 10:18:26;;;;;;;15.85;2.60;;;17.10;99.90;;;;;;5021187;28;20025;-93
2022/10/22 10:21:05;;;;;;;8.52;2.60;;;17.10;99.90;;;;;;5021585;28;20053;-91
2022/10/22 10:23:44;;;;;;;8.70;3.95;;;17.20;99.90;;;;;;5000038;28;20032;-91
2022/10/22 10:26:33;;;;;;;12.00;3.00;;;17.20;99.90;;;;;;5023904;28;20044;-94
2022/10/22 10:29:35;;;;;;;8.68;3.13;;;17.20;99.90;;;;;;5009112;28;20029;-92
2022/10/22 10:32:23;;;;;;;7.97;2.50;;;17.30;99.90;;;;;;5018924;28;20045;-91
2022/10/22 10:35:20;;;;;;;20.90;5.50;;;17.40;99.90;;;;;;5022162;28;20025;-90
2022/10/22 10:38:03;;;;;;;9.55;2.83;;;17.40;99.90;;;;;;5026720;28;20029;-89
2022/10/22 10:40:49;;;;;;;18.15;2.78;;;17.40;99.90;;;;;;5030587;28;20029;-91
2022/10/22 10:43:20;;;;;;;;;;;17.40;99.90;;;;;;5028958;28;20104;-92
2022/10/22 10:45:55;;;;;;;13.20;3.28;;;17.50;99.90;;;;;;5002558;28;20000;-91
2022/10/22 10:48:30;;;;;;;27.35;3.40;;;17.50;99.90;;;;;;5026483;28;20033;-92
2022/10/22 10:51:14;;;;;;;7.97;2.90;;;17.50;99.90;;;;;;5019871;28;20445;-94
2022/10/22 10:54:10;;;;;;;5.03;2.95;;;17.60;99.90;;;;;;5002333;28;20415;-92
2022/10/22 10:56:38;;;;;;;;;;;17.80;99.90;;;;;;5017846;28;20029;-92
2022/10/22 10:59:15;;;;;;;14.02;4.25;;;17.80;99.90;;;;;;5029584;28;20374;-91
2022/10/22 11:01:51;;;;;;;7.15;2.30;;;17.90;99.90;;;;;;5029400;28;20037;-92
2022/10/22 11:04:40;;;;;;;12.20;2.83;;;17.90;99.90;;;;;;5025820;28;20029;-91
2022/10/22 11:07:14;;;;;;;9.05;2.45;;;18.00;99.90;;;;;;5028966;28;20100;-93
2022/10/22 11:09:47;;;;;;;11.57;2.28;;;18.00;99.90;;;;;;5021794;28;20041;-94
2022/10/22 11:12:21;;;;;;;8.80;2.78;;;17.90;99.90;;;;;;5025766;28;20140;-92
2022/10/22 11:15:08;;;;;;;8.77;2.60;;;17.90;99.90;;;;;;5018811;28;20030;-91
2022/10/22 11:17:44;;;;;;;10.35;2.60;;;17.90;99.90;;;;;;5019758;28;20032;-95
2022/10/22 11:20:31;;;;;;;6.30;2.70;;;17.90;99.90;;;;;;5013019;28;20034;-91
2022/10/22 11:23:08;;;;;;;6.03;2.70;;;17.90;99.90;;;;;;5010464;28;20030;-91
2022/10/22 11:25:45;;;;;;;11.73;2.92;;;18.00;99.90;;;;;;5012684;28;20034;-90
2022/10/22 11:28:24;;;;;;;8.88;2.65;;;18.00;99.90;;;;;;5015271;28;20110;-90
2022/10/22 11:31:00;;;;;;;10.52;2.00;;;18.00;99.90;;;;;;5016046;28;20083;-93
2022/10/22 11:33:33;;;;;;;20.52;2.92;;;18.00;99.90;;;;;;5022459;28;20506;-91
2022/10/22 11:36:01;;;;;;;7.85;2.40;;;18.00;99.90;;;;;;5011067;28;20425;-90
2022/10/22 11:38:27;;;;;;;7.35;2.03;;;18.10;99.90;;;;;;5027779;28;20487;-92
2022/10/22 11:41:05;;;;;;;8.70;3.00;;;18.00;99.90;;;;;;5015417;28;20041;-90
2022/10/22 11:43:34;;;;;;;18.13;3.10;;;18.00;99.90;;;;;;5003051;28;20030;-90
2022/10/22 11:46:08;;;;;;;7.75;2.08;;;18.10;99.90;;;;;;5024773;28;20116;-94
2022/10/22 11:48:36;;;;;;;6.20;2.20;;;18.10;99.90;;;;;;5025266;28;20029;-91
2022/10/22 11:51:03;;;;;;;11.48;2.83;;;18.10;99.90;;;;;;5032166;28;20540;-91
2022/10/22 11:53:33;;;;;;;10.55;2.10;;;18.00;99.90;;;;;;5029491;28;20025;-94
2022/10/22 11:56:11;;;;;;;12.85;2.58;;;18.00;99.90;;;;;;5006399;28;20029;-92
2022/10/22 11:58:38;;;;;;;11.85;2.53;;;18.10;99.90;;;;;;5009338;28;20036;-94
2022/10/22 12:01:06;;;;;;;5.97;1.50;;;18.10;99.90;;;;;;5024564;28;20120;-91
2022/10/22 12:03:32;;;;;;;4.07;1.90;;;18.20;99.90;;;;;;5025828;28;20033;-91
2022/10/22 12:06:04;;;;;;;6.22;1.95;;;18.20;99.90;;;;;;5026787;28;20029;-91
2022/10/22 12:08:32;;;;;;;8.02;1.90;;;18.20;99.90;;;;;;5027004;28;20056;-95
2022/10/22 12:11:03;;;;;;;4.68;1.63;;;18.20;99.90;;;;;;5023004;28;20061;-89
2022/10/22 12:13:51;;;;;;;4.60;1.20;;;18.30;99.90;;;;;;5022242;28;20048;-95
2022/10/22 12:16:18;;;;;;;4.88;1.70;;;18.30;99.90;;;;;;5021037;28;20037;-88
2022/10/22 12:18:44;;;;;;;4.88;1.52;;;18.30;99.90;;;;;;5020559;28;20116;-90
2022/10/22 12:21:14;;;;;;;9.05;1.65;;;18.30;99.90;;;;;;5029898;28;20478;-91
2022/10/22 12:23:40;;;;;;;8.07;1.45;;;18.30;99.90;;;;;;5030860;28;20029;-95
2022/10/22 12:26:28;;;;;;;8.45;2.10;;;18.40;99.90;;;;;;5020068;28;20398;-92
2022/10/22 12:28:58;;;;;;;5.85;1.50;;;18.30;99.90;;;;;;5027994;28;20033;-91
2022/10/22 12:31:24;;;;;;;13.23;2.15;;;18.30;99.90;;;;;;5017646;28;20034;-88
2022/10/22 12:33:59;;;;;;;8.32;2.80;;;18.30;99.90;;;;;;5025044;28;20037;-91
2022/10/22 12:36:27;;;;;;;7.50;1.75;;;18.30;99.90;;;;;;5025859;28;20034;-90
2022/10/22 12:38:53;;;;;;;6.03;1.38;;;18.30;99.90;;;;;;5026192;28;20030;-91
2022/10/22 12:41:20;;;;;;;7.63;2.33;;;18.30;99.90;;;;;;5023390;28;20078;-92
2022/10/22 12:43:46;;;;;;;7.90;1.75;;;18.40;99.90;;;;;;5028888;28;20025;-88
2022/10/22 12:46:15;;;;;;;4.70;1.33;;;18.50;99.90;;;;;;5026326;28;20064;-84
2022/10/22 12:48:43;;;;;;;9.15;1.77;;;18.40;99.90;;;;;;5003217;28;20170;-86
2022/10/22 12:51:18;;;;;;;7.85;1.85;;;18.40;99.90;;;;;;5024262;28;20041;-89
2022/10/22 12:53:50;;;;;;;10.18;3.45;;;18.30;99.90;;;;;;5024891;28;20126;-89
2022/10/22 12:56:27;;;;;;;8.75;1.88;;;18.40;99.90;;;;;;5022706;28;20041;-88
2022/10/22 12:59:11;;;;;;;5.93;1.73;;;18.30;99.90;;;;;;5020679;28;20498;-88
2022/10/22 13:01:39;;;;;;;5.07;1.50;;;18.30;99.90;;;;;;5017619;28;20042;-90
2022/10/22 13:04:30;;;;;;;6.63;1.63;;;18.20;99.90;;;;;;5028334;28;20705;-88